Terminal Aerodrome Forecast
Issued by NWS

Home | Current Version | Previous Version | Text Only | Print | Product List | Glossary On
Versions: 1 2 3 4 5 6 7 8 9 10 11 12
000
FTUS42 KTBW 012300
TAFLAL
TAF
KLAL 012327Z 0200/0224 15011G17KT P6SM SCT050 SCT250
     FM020600 16007KT P6SM SCT015 BKN100
     FM020900 19009KT P6SM SCT015 BKN035
     FM021300 23012G21KT P6SM VCSH SCT015 BKN025
     FM022000 30017G24KT P6SM OVC050
      AMD NOT SKED 0203/0212=

USA.gov is the U.S. government's official web portal to all federal, state and local government web resources and services.